createdAt,value
2023-01-29T00:01:57.320Z,12.15
2023-01-29T00:04:24.502Z,11.75
2023-01-29T00:06:51.203Z,10.98
2023-01-29T00:09:18.265Z,11.60
2023-01-29T00:11:45.031Z,11.82
2023-01-29T00:14:11.870Z,12.30
2023-01-29T00:16:38.690Z,11.45
2023-01-29T00:19:05.484Z,11.95
2023-01-29T00:21:32.271Z,11.68
2023-01-29T00:23:59.918Z,11.23
2023-01-29T00:26:27.699Z,11.18
2023-01-29T00:28:57.098Z,11.55
2023-01-29T00:31:25.244Z,11.52
2023-01-29T00:33:52.356Z,11.43
2023-01-29T00:36:21.518Z,10.82
2023-01-29T00:38:58.509Z,11.60
2023-01-29T00:41:48.932Z,11.45
2023-01-29T00:44:34.903Z,10.70
2023-01-29T00:47:02.178Z,11.20
2023-01-29T00:49:30.271Z,11.20
2023-01-29T00:52:17.152Z,11.68
2023-01-29T00:54:43.868Z,10.68
2023-01-29T00:57:10.655Z,10.30
2023-01-29T00:59:37.686Z,10.27
2023-01-29T01:02:23.087Z,9.85
2023-01-29T01:04:49.779Z,10.02
2023-01-29T01:07:16.423Z,10.05
2023-01-29T01:10:01.448Z,9.88
2023-01-29T01:12:28.775Z,10.30
2023-01-29T01:14:55.530Z,10.63
2023-01-29T01:17:22.802Z,10.00
2023-01-29T01:19:49.712Z,10.05
2023-01-29T01:22:16.527Z,10.63
2023-01-29T01:24:44.048Z,9.32
2023-01-29T01:27:10.866Z,9.60
2023-01-29T01:29:37.928Z,10.10
2023-01-29T01:32:06.127Z,10.07
2023-01-29T01:34:33.053Z,9.65
2023-01-29T01:37:00.931Z,10.52
2023-01-29T01:39:27.857Z,9.55
2023-01-29T01:41:55.043Z,9.38
2023-01-29T01:45:10.201Z,10.70
2023-01-29T01:47:48.919Z,9.68
2023-01-29T01:50:22.565Z,9.27
2023-01-29T01:52:53.108Z,10.52
2023-01-29T01:55:24.386Z,9.88
2023-01-29T01:57:55.003Z,10.13
2023-01-29T02:00:24.631Z,10.13
2023-01-29T02:03:09.791Z,12.02
2023-01-29T02:05:55.933Z,10.48
2023-01-29T02:09:10.313Z,11.00
2023-01-29T02:11:37.867Z,10.68
2023-01-29T02:14:04.645Z,11.23
2023-01-29T02:16:35.055Z,10.63
2023-01-29T02:19:06.168Z,10.73
2023-01-29T02:21:46.418Z,11.23
2023-01-29T02:24:44.521Z,12.43
2023-01-29T02:27:16.695Z,11.20
2023-01-29T02:29:59.828Z,10.90
2023-01-29T02:32:54.169Z,10.55
2023-01-29T02:35:41.333Z,11.93
2023-01-29T02:38:27.289Z,10.73
2023-01-29T02:40:56.909Z,11.65
2023-01-29T02:43:43.340Z,12.23
2023-01-29T02:46:34.952Z,12.15
2023-01-29T02:49:25.621Z,11.02
2023-01-29T02:51:58.431Z,11.32
2023-01-29T02:54:33.553Z,11.43
2023-01-29T02:57:08.866Z,11.70
2023-01-29T02:59:43.298Z,12.10
2023-01-29T03:02:16.456Z,11.80
2023-01-29T03:04:48.159Z,11.95
2023-01-29T03:07:41.266Z,12.90
2023-01-29T03:10:28.519Z,11.23
2023-01-29T03:13:20.618Z,11.63
2023-01-29T03:15:54.813Z,11.40
2023-01-29T03:18:46.805Z,11.25
2023-01-29T03:21:41.005Z,11.73
2023-01-29T03:24:32.094Z,10.52
2023-01-29T03:27:22.762Z,11.95
2023-01-29T03:30:11.702Z,10.70
2023-01-29T03:32:55.488Z,12.00
2023-01-29T03:35:37.541Z,11.45
2023-01-29T03:38:10.037Z,10.85
2023-01-29T03:40:50.871Z,11.05
2023-01-29T03:43:53.073Z,11.68
2023-01-29T03:46:48.146Z,11.82
2023-01-29T03:49:35.034Z,11.25
2023-01-29T03:52:19.681Z,12.40
2023-01-29T03:54:57.777Z,11.57
2023-01-29T03:57:40.755Z,12.50
2023-01-29T04:00:18.084Z,12.07
2023-01-29T04:03:08.096Z,11.80
2023-01-29T04:05:44.551Z,11.15
2023-01-29T04:08:26.146Z,10.80
2023-01-29T04:10:57.365Z,12.05
2023-01-29T04:13:24.894Z,12.23
2023-01-29T04:15:56.677Z,12.57
2023-01-29T04:18:50.785Z,11.32
2023-01-29T04:21:22.615Z,10.93
2023-01-29T04:23:49.246Z,12.60
2023-01-29T04:26:42.078Z,10.45
2023-01-29T04:29:30.368Z,10.63
2023-01-29T04:32:24.737Z,11.68
2023-01-29T04:34:51.897Z,11.93
2023-01-29T04:37:40.138Z,11.57
2023-01-29T04:40:16.280Z,12.10
2023-01-29T04:42:59.208Z,11.60
2023-01-29T04:45:44.985Z,11.85
2023-01-29T04:48:23.782Z,11.45
2023-01-29T04:51:11.586Z,10.85
2023-01-29T04:54:12.009Z,11.65
2023-01-29T04:59:30.949Z,13.10
2023-01-29T05:02:00.864Z,12.30
2023-01-29T05:04:29.675Z,11.75
2023-01-29T05:06:56.789Z,12.23
2023-01-29T05:09:25.129Z,12.43
2023-01-29T05:11:52.367Z,12.65
2023-01-29T05:14:20.934Z,12.38
2023-01-29T05:16:52.732Z,12.63
2023-01-29T05:19:19.563Z,13.55
2023-01-29T05:21:49.052Z,12.00
2023-01-29T05:24:22.081Z,11.98
2023-01-29T05:27:10.529Z,11.93
2023-01-29T05:29:37.492Z,13.15
2023-01-29T05:32:04.291Z,12.75
2023-01-29T05:34:31.013Z,13.57
2023-01-29T05:36:57.708Z,12.85
2023-01-29T05:39:24.443Z,12.70
2023-01-29T05:41:51.124Z,13.32
2023-01-29T05:44:17.768Z,13.77
2023-01-29T05:46:44.982Z,14.32
2023-01-29T05:49:12.669Z,13.02
2023-01-29T05:51:39.393Z,12.35
2023-01-29T05:54:06.141Z,13.00
2023-01-29T05:56:32.789Z,13.23
2023-01-29T05:58:59.687Z,12.25
2023-01-29T06:01:26.479Z,12.13
2023-01-29T06:03:53.182Z,12.25
2023-01-29T06:06:20.029Z,12.32
2023-01-29T06:08:47.527Z,11.65
2023-01-29T06:11:15.083Z,12.27
2023-01-29T06:13:41.991Z,11.93
2023-01-29T06:16:11.531Z,13.15
2023-01-29T06:18:39.347Z,11.90
2023-01-29T06:21:08.407Z,10.70
2023-01-29T06:23:35.085Z,11.98
2023-01-29T06:26:06.597Z,11.80
2023-01-29T06:28:33.280Z,12.25
2023-01-29T06:31:21.074Z,13.02
2023-01-29T06:33:48.993Z,11.43
2023-01-29T06:36:15.702Z,12.00
2023-01-29T06:38:42.348Z,11.73
2023-01-29T06:41:13.926Z,12.48
2023-01-29T06:43:43.597Z,12.13
2023-01-29T06:46:10.384Z,12.00
2023-01-29T06:48:37.080Z,12.52
2023-01-29T06:51:05.404Z,12.20
2023-01-29T06:53:33.439Z,11.48
2023-01-29T06:56:00.162Z,11.68
2023-01-29T06:58:27.004Z,12.35
2023-01-29T07:00:53.733Z,12.20
2023-01-29T07:03:20.621Z,11.63
2023-01-29T07:05:52.425Z,11.23
2023-01-29T07:08:22.590Z,12.55
2023-01-29T07:10:50.354Z,12.43
2023-01-29T07:13:17.365Z,11.63
2023-01-29T07:15:44.548Z,10.82
2023-01-29T07:18:14.194Z,12.52
2023-01-29T07:20:42.310Z,11.60
2023-01-29T07:23:15.639Z,12.27
2023-01-29T07:25:42.433Z,13.25
2023-01-29T07:28:09.230Z,12.30
2023-01-29T07:30:36.260Z,13.43
2023-01-29T07:33:07.159Z,12.05
2023-01-29T07:35:42.604Z,12.43
2023-01-29T07:38:10.831Z,13.43
2023-01-29T07:40:37.495Z,12.60
2023-01-29T07:43:06.986Z,12.07
2023-01-29T07:45:36.103Z,12.93
2023-01-29T07:48:04.929Z,13.02
2023-01-29T07:50:33.326Z,13.82
2023-01-29T07:53:00.314Z,13.77
2023-01-29T07:55:27.187Z,12.43
2023-01-29T07:57:57.578Z,13.75
2023-01-29T08:00:24.462Z,13.18
2023-01-29T08:02:51.359Z,14.68
2023-01-29T08:05:18.402Z,12.82
2023-01-29T08:07:49.357Z,13.07
2023-01-29T08:10:24.238Z,13.07
2023-01-29T08:12:58.888Z,12.73
2023-01-29T08:15:26.277Z,13.07
2023-01-29T08:20:40.748Z,13.07
2023-01-29T08:23:12.389Z,13.32
2023-01-29T08:25:39.187Z,12.40
2023-01-29T08:28:06.148Z,13.52
2023-01-29T08:30:34.148Z,13.63
2023-01-29T08:33:02.757Z,13.88
2023-01-29T08:35:29.447Z,13.30
2023-01-29T08:37:59.378Z,15.80
2023-01-29T08:40:27.769Z,13.85
2023-01-29T08:43:03.099Z,13.52
2023-01-29T08:45:34.546Z,13.05
2023-01-29T08:48:01.888Z,12.27
2023-01-29T08:50:30.611Z,13.15
2023-01-29T08:52:59.194Z,12.27
2023-01-29T08:55:26.860Z,12.00
2023-01-29T08:57:53.677Z,12.18
2023-01-29T09:00:20.845Z,13.05
2023-01-29T09:02:47.535Z,12.82
2023-01-29T09:05:15.033Z,12.52
2023-01-29T09:07:42.050Z,13.85
2023-01-29T09:10:10.354Z,12.85
2023-01-29T09:12:37.132Z,12.43
2023-01-29T09:15:04.120Z,13.32
2023-01-29T09:17:30.871Z,12.80
2023-01-29T09:19:58.578Z,12.27
2023-01-29T09:22:25.272Z,13.07
2023-01-29T09:24:51.979Z,15.35
2023-01-29T09:27:18.589Z,13.40
2023-01-29T09:29:45.272Z,13.25
2023-01-29T09:32:12.031Z,14.40
2023-01-29T09:34:38.674Z,13.35
2023-01-29T09:37:05.535Z,13.60
2023-01-29T09:39:32.285Z,13.75
2023-01-29T09:42:01.763Z,13.27
2023-01-29T09:44:49.065Z,13.93
2023-01-29T09:47:18.083Z,14.32
2023-01-29T09:49:53.560Z,13.70
2023-01-29T09:52:27.972Z,14.80
2023-01-29T09:55:00.418Z,16.48
2023-01-29T09:57:48.359Z,15.25
2023-01-29T10:00:18.773Z,14.57
2023-01-29T10:03:08.314Z,14.00
2023-01-29T10:05:43.949Z,14.77
2023-01-29T10:08:23.725Z,13.65
2023-01-29T10:10:59.369Z,15.48
2023-01-29T10:13:46.009Z,14.60
2023-01-29T10:16:53.936Z,14.73
2023-01-29T10:19:29.376Z,14.30
2023-01-29T10:22:27.632Z,14.13
2023-01-29T10:25:04.456Z,13.75
2023-01-29T10:27:39.075Z,14.18
2023-01-29T10:30:33.025Z,14.57
2023-01-29T10:33:03.357Z,13.90
2023-01-29T10:35:41.239Z,14.65
2023-01-29T10:38:39.997Z,14.35
2023-01-29T10:41:21.736Z,15.35
2023-01-29T10:43:57.903Z,16.45
2023-01-29T10:46:40.248Z,14.20
2023-01-29T10:49:13.684Z,14.20
2023-01-29T10:51:46.642Z,15.10
2023-01-29T10:54:45.405Z,13.82
2023-01-29T10:57:40.027Z,14.52
2023-01-29T11:00:19.126Z,14.32
2023-01-29T11:02:48.566Z,13.98
2023-01-29T11:05:33.475Z,15.13
2023-01-29T11:08:08.569Z,15.10
2023-01-29T11:10:44.393Z,14.68
2023-01-29T11:13:14.981Z,16.75
2023-01-29T11:15:41.736Z,15.57
2023-01-29T11:18:13.619Z,15.48
2023-01-29T11:20:42.080Z,15.00
2023-01-29T11:23:32.652Z,14.43
2023-01-29T11:26:00.536Z,14.73
2023-01-29T11:28:45.230Z,14.25
2023-01-29T11:31:16.668Z,15.77
2023-01-29T11:33:44.078Z,14.48
2023-01-29T11:36:34.196Z,13.65
2023-01-29T11:39:20.657Z,13.88
2023-01-29T11:41:50.240Z,13.25
2023-01-29T11:44:43.308Z,14.45
2023-01-29T11:47:30.189Z,14.60
2023-01-29T11:50:00.323Z,14.65
2023-01-29T11:52:38.588Z,14.35
2023-01-29T11:55:40.942Z,14.43
2023-01-29T11:58:29.802Z,13.88
2023-01-29T12:00:58.379Z,13.57
2023-01-29T12:03:30.999Z,13.68
2023-01-29T12:06:05.796Z,14.05
2023-01-29T12:08:37.557Z,14.50
2023-01-29T12:11:24.285Z,12.80
2023-01-29T12:13:55.595Z,14.95
2023-01-29T12:16:54.131Z,14.65
2023-01-29T12:19:47.827Z,15.25
2023-01-29T12:22:23.441Z,14.63
2023-01-29T12:25:01.913Z,15.43
2023-01-29T12:27:46.308Z,13.10
2023-01-29T12:31:04.121Z,14.52
2023-01-29T12:33:55.617Z,15.40
2023-01-29T12:36:47.101Z,13.27
2023-01-29T12:39:16.844Z,14.32
2023-01-29T12:42:13.782Z,14.60
2023-01-29T12:44:59.425Z,14.00
2023-01-29T12:47:40.630Z,13.98
2023-01-29T12:50:33.651Z,13.68
2023-01-29T12:53:26.548Z,14.48
2023-01-29T12:55:59.155Z,14.10
2023-01-29T12:58:29.708Z,15.65
2023-01-29T13:01:03.870Z,15.00
2023-01-29T13:03:43.032Z,14.52
2023-01-29T13:06:14.640Z,13.38
2023-01-29T13:08:43.077Z,13.95
2023-01-29T13:11:15.941Z,15.32
2023-01-29T13:13:55.189Z,15.82
2023-01-29T13:16:25.900Z,13.60
2023-01-29T13:19:06.357Z,14.60
2023-01-29T13:21:42.164Z,14.50
2023-01-29T13:24:16.388Z,14.07
2023-01-29T13:26:48.470Z,13.65
2023-01-29T13:29:26.456Z,14.05
2023-01-29T13:31:55.635Z,13.32
2023-01-29T13:34:28.387Z,15.18
2023-01-29T13:36:58.261Z,15.70
2023-01-29T13:39:31.130Z,15.20
2023-01-29T13:41:59.933Z,14.02
2023-01-29T13:44:35.800Z,14.43
2023-01-29T13:47:11.734Z,14.68
2023-01-29T13:49:47.628Z,15.02
2023-01-29T13:52:35.744Z,14.98
2023-01-29T13:55:05.877Z,15.27
2023-01-29T13:57:55.961Z,14.85
2023-01-29T14:00:24.326Z,17.17
2023-01-29T14:02:56.755Z,15.63
2023-01-29T14:05:33.852Z,16.48
2023-01-29T14:08:09.570Z,15.15
2023-01-29T14:10:37.555Z,14.38
2023-01-29T14:13:04.202Z,14.90
2023-01-29T14:15:34.402Z,14.48
2023-01-29T14:18:05.686Z,15.05
2023-01-29T14:20:45.983Z,14.52
2023-01-29T14:23:35.964Z,16.70
2023-01-29T14:26:05.505Z,16.38
2023-01-29T14:28:34.665Z,15.18
2023-01-29T14:31:02.659Z,16.60
2023-01-29T14:33:36.927Z,17.15
2023-01-29T14:36:12.287Z,14.52
2023-01-29T14:38:46.275Z,18.13
2023-01-29T14:41:32.592Z,16.13
2023-01-29T14:44:36.704Z,16.95
2023-01-29T14:47:04.672Z,16.75
2023-01-29T14:49:57.414Z,15.90
2023-01-29T14:52:35.785Z,16.15
2023-01-29T14:55:06.742Z,15.90
2023-01-29T14:57:34.359Z,15.98
2023-01-29T15:00:05.312Z,14.85
2023-01-29T15:02:43.411Z,16.15
2023-01-29T15:05:22.344Z,15.20
2023-01-29T15:07:56.954Z,15.88
2023-01-29T15:10:40.040Z,16.25
2023-01-29T15:13:16.080Z,15.65
2023-01-29T15:16:06.186Z,15.70
2023-01-29T15:18:43.245Z,14.35
2023-01-29T15:21:15.191Z,15.63
2023-01-29T15:23:44.040Z,15.98
2023-01-29T15:26:15.817Z,15.75
2023-01-29T15:28:45.145Z,15.60
2023-01-29T15:31:17.999Z,16.70
2023-01-29T15:33:48.202Z,17.42
2023-01-29T15:36:21.815Z,18.10
2023-01-29T15:38:48.562Z,17.30
2023-01-29T15:41:20.734Z,16.77
2023-01-29T15:43:49.737Z,16.58
2023-01-29T15:46:27.812Z,16.85
2023-01-29T15:48:57.453Z,16.85
2023-01-29T15:51:26.207Z,16.52
2023-01-29T15:53:59.774Z,16.73
2023-01-29T15:56:38.171Z,17.73
2023-01-29T15:59:09.651Z,18.50
2023-01-29T16:01:36.723Z,17.85
2023-01-29T16:04:04.266Z,17.77
2023-01-29T16:06:38.624Z,17.10
2023-01-29T16:09:07.169Z,17.45
2023-01-29T16:11:35.278Z,17.33
2023-01-29T16:14:03.645Z,17.05
2023-01-29T16:16:30.590Z,17.85
2023-01-29T16:19:00.741Z,16.05
2023-01-29T16:21:39.763Z,16.25
2023-01-29T16:24:15.924Z,17.40
2023-01-29T16:26:46.246Z,17.15
2023-01-29T16:29:23.895Z,17.13
2023-01-29T16:31:54.237Z,16.35
2023-01-29T16:34:38.866Z,18.05
2023-01-29T16:37:16.997Z,17.00
2023-01-29T16:39:47.156Z,18.25
2023-01-29T16:42:17.337Z,18.33
2023-01-29T16:44:56.178Z,19.08
2023-01-29T16:47:33.505Z,17.35
2023-01-29T16:50:04.529Z,17.27
2023-01-29T16:52:35.010Z,17.08
2023-01-29T16:55:15.700Z,17.15
2023-01-29T16:57:47.538Z,17.20
2023-01-29T17:00:29.787Z,18.02
2023-01-29T17:03:07.489Z,17.98
2023-01-29T17:05:36.761Z,17.65
2023-01-29T17:08:04.646Z,16.83
2023-01-29T17:10:32.652Z,16.75
2023-01-29T17:13:10.086Z,18.05
2023-01-29T17:15:46.066Z,18.63
2023-01-29T17:18:22.979Z,18.40
2023-01-29T17:20:50.383Z,18.13
2023-01-29T17:23:17.027Z,17.92
2023-01-29T17:25:44.477Z,17.95
2023-01-29T17:28:16.045Z,17.45
2023-01-29T17:30:44.851Z,17.42
2023-01-29T17:33:22.635Z,16.80
2023-01-29T17:35:50.173Z,18.52
2023-01-29T17:38:26.047Z,17.08
2023-01-29T17:40:59.854Z,20.17
2023-01-29T17:43:26.742Z,19.70
2023-01-29T17:45:53.677Z,17.25
2023-01-29T17:48:26.474Z,17.15
2023-01-29T17:50:58.831Z,17.58
2023-01-29T17:53:30.498Z,17.15
2023-01-29T17:56:04.541Z,16.67
2023-01-29T17:58:31.202Z,18.00
2023-01-29T18:00:57.898Z,17.23
2023-01-29T18:03:26.482Z,15.95
2023-01-29T18:05:53.184Z,15.60
2023-01-29T18:08:26.366Z,16.10
2023-01-29T18:10:53.057Z,17.10
2023-01-29T18:13:19.749Z,16.75
2023-01-29T18:15:46.487Z,17.08
2023-01-29T18:18:19.488Z,14.65
2023-01-29T18:20:46.629Z,17.25
2023-01-29T18:23:13.499Z,16.02
2023-01-29T18:25:40.241Z,15.88
2023-01-29T18:28:07.212Z,14.52
2023-01-29T18:30:34.110Z,15.45
2023-01-29T18:33:00.953Z,15.73
2023-01-29T18:35:27.913Z,15.73
2023-01-29T18:37:55.147Z,14.75
2023-01-29T18:40:21.922Z,15.43
2023-01-29T18:42:48.643Z,15.07
2023-01-29T18:45:16.575Z,14.55
2023-01-29T18:47:43.879Z,14.77
2023-01-29T18:50:11.689Z,15.95
2023-01-29T18:52:38.450Z,15.50
2023-01-29T18:55:05.492Z,14.55
2023-01-29T18:58:26.146Z,14.52
2023-01-29T19:00:20.393Z,15.57
2023-01-29T19:02:47.271Z,15.20
2023-01-29T19:05:14.391Z,15.43
2023-01-29T19:07:41.251Z,15.02
2023-01-29T19:10:12.373Z,15.65
2023-01-29T19:12:42.406Z,15.70
2023-01-29T19:15:11.368Z,16.80
2023-01-29T19:17:38.854Z,14.98
2023-01-29T19:20:05.994Z,15.00
2023-01-29T19:22:32.660Z,14.70
2023-01-29T19:24:59.476Z,15.02
2023-01-29T19:27:30.169Z,14.57
2023-01-29T19:29:59.908Z,14.50
2023-01-29T19:32:28.734Z,13.77
2023-01-29T19:34:55.497Z,14.40
2023-01-29T19:37:22.230Z,14.13
2023-01-29T19:39:48.972Z,14.93
2023-01-29T19:42:15.794Z,14.63
2023-01-29T19:44:42.604Z,13.85
2023-01-29T19:47:09.299Z,14.35
2023-01-29T19:49:35.952Z,15.13
2023-01-29T19:52:02.973Z,14.55
2023-01-29T19:54:30.195Z,14.20
2023-01-29T19:56:57.041Z,15.23
2023-01-29T19:59:23.833Z,15.10
2023-01-29T20:01:50.785Z,14.98
2023-01-29T20:04:17.613Z,14.73
2023-01-29T20:06:44.548Z,15.68
2023-01-29T20:09:11.418Z,14.27
2023-01-29T20:11:38.120Z,15.57
2023-01-29T20:14:04.779Z,14.65
2023-01-29T20:16:31.467Z,15.07
2023-01-29T20:19:13.716Z,14.45
2023-01-29T20:21:42.151Z,15.68
2023-01-29T20:24:12.114Z,16.48
2023-01-29T20:26:38.960Z,14.65
2023-01-29T20:29:06.342Z,15.13
2023-01-29T20:31:33.046Z,15.32
2023-01-29T20:33:59.731Z,14.25
2023-01-29T20:36:26.492Z,14.55
2023-01-29T20:38:53.286Z,13.43
2023-01-29T20:41:21.037Z,14.80
2023-01-29T20:43:50.039Z,14.07
2023-01-29T20:46:17.047Z,13.68
2023-01-29T20:48:43.775Z,13.60
2023-01-29T20:51:16.096Z,14.60
2023-01-29T20:53:45.356Z,14.60
2023-01-29T20:56:13.478Z,13.57
2023-01-29T20:58:43.003Z,14.18
2023-01-29T21:01:11.604Z,13.82
2023-01-29T21:03:39.657Z,14.95
2023-01-29T21:06:08.361Z,13.25
2023-01-29T21:08:36.235Z,13.20
2023-01-29T21:11:03.872Z,13.32
2023-01-29T21:13:30.871Z,14.13
2023-01-29T21:15:58.009Z,12.82
2023-01-29T21:18:26.207Z,13.73
2023-01-29T21:20:53.537Z,13.70
2023-01-29T21:23:20.699Z,12.82
2023-01-29T21:25:48.103Z,14.35
2023-01-29T21:28:15.886Z,13.82
2023-01-29T21:30:42.789Z,12.65
2023-01-29T21:33:09.559Z,13.02
2023-01-29T21:35:37.704Z,13.90
2023-01-29T21:38:04.872Z,13.68
2023-01-29T21:40:31.701Z,14.07
2023-01-29T21:43:15.321Z,14.50
2023-01-29T21:45:42.737Z,13.55
2023-01-29T21:48:11.758Z,14.40
2023-01-29T21:50:39.113Z,13.30
2023-01-29T21:53:05.889Z,14.18
2023-01-29T21:55:32.863Z,14.80
2023-01-29T21:58:00.294Z,14.50
2023-01-29T22:00:27.414Z,14.52
2023-01-29T22:02:54.167Z,13.95
2023-01-29T22:05:20.951Z,14.48
2023-01-29T22:07:48.537Z,14.43
2023-01-29T22:10:17.356Z,15.07
2023-01-29T22:12:44.871Z,14.40
2023-01-29T22:15:12.403Z,14.07
2023-01-29T22:17:41.187Z,13.38
2023-01-29T22:20:13.465Z,13.73
2023-01-29T22:22:40.230Z,13.68
2023-01-29T22:25:07.309Z,13.88
2023-01-29T22:27:34.406Z,13.45
2023-01-29T22:30:01.158Z,15.13
2023-01-29T22:32:28.924Z,14.20
2023-01-29T22:34:55.605Z,13.93
2023-01-29T22:37:22.443Z,15.10
2023-01-29T22:39:49.132Z,14.20
2023-01-29T22:42:18.124Z,14.63
2023-01-29T22:44:44.732Z,13.60
2023-01-29T22:47:12.253Z,13.52
2023-01-29T22:49:38.895Z,14.00
2023-01-29T22:52:12.498Z,14.30
2023-01-29T22:54:41.041Z,13.60
2023-01-29T22:57:12.463Z,13.35
2023-01-29T22:59:39.482Z,13.80
2023-01-29T23:02:07.329Z,14.50
2023-01-29T23:04:34.106Z,13.27
2023-01-29T23:07:00.846Z,13.02
2023-01-29T23:09:27.550Z,14.13
2023-01-29T23:11:54.452Z,14.00
2023-01-29T23:14:21.110Z,14.68
2023-01-29T23:16:47.756Z,13.95
2023-01-29T23:19:14.464Z,13.40
2023-01-29T23:21:41.093Z,13.48
2023-01-29T23:24:08.614Z,14.05
2023-01-29T23:26:53.777Z,13.20
2023-01-29T23:29:20.880Z,13.65
2023-01-29T23:31:47.668Z,12.50
2023-01-29T23:34:14.999Z,13.35
2023-01-29T23:36:41.989Z,14.68
2023-01-29T23:39:08.912Z,14.25
2023-01-29T23:41:35.817Z,13.40
2023-01-29T23:44:02.620Z,14.85
2023-01-29T23:46:29.525Z,15.98
2023-01-29T23:48:56.221Z,15.80
2023-01-29T23:51:23.055Z,15.70
2023-01-29T23:53:49.679Z,16.05
2023-01-29T23:56:16.397Z,14.45
2023-01-29T23:58:43.870Z,15.93
